Time;durP1;ratioP1;P1;durP2;ratioP2;P2;SDS_P1;SDS_P2;PMS_P1;PMS_P2;Temp;Humidity;BMP_temperature;BMP_pressure;BME280_temperature;BME280_humidity;BME280_pressure;Samples;Min_cycle;Max_cycle;Signal;HPM_P1;HPM_P2
2022/03/20 00:01:09;;;;;;;9.95;2.25;;;7.80;94.30;;;;;;5083416;28;20048;-55
2022/03/20 00:03:39;;;;;;;8.07;2.08;;;7.80;94.40;;;;;;5085181;28;20427;-53
2022/03/20 00:06:06;;;;;;;6.30;1.90;;;7.80;93.90;;;;;;5085436;28;20053;-57
2022/03/20 00:08:33;;;;;;;10.23;2.17;;;7.80;94.30;;;;;;5085397;28;20101;-57
2022/03/20 00:11:01;;;;;;;10.23;2.03;;;7.80;94.50;;;;;;5085367;28;20141;-56
2022/03/20 00:13:28;;;;;;;11.05;1.92;;;7.80;94.30;;;;;;5085528;28;20169;-57
2022/03/20 00:15:56;;;;;;;9.13;1.95;;;7.70;94.70;;;;;;5068908;28;20048;-56
2022/03/20 00:18:23;;;;;;;8.48;1.67;;;7.70;94.60;;;;;;5086538;28;20048;-55
2022/03/20 00:20:53;;;;;;;12.32;2.30;;;7.70;94.70;;;;;;5087292;28;20052;-56
2022/03/20 00:23:19;;;;;;;9.38;1.70;;;7.70;94.80;;;;;;5068549;28;20180;-56
2022/03/20 00:25:46;;;;;;;9.45;1.75;;;7.60;94.60;;;;;;5068802;28;20051;-56
2022/03/20 00:28:15;;;;;;;7.82;2.28;;;7.60;94.90;;;;;;5086706;28;20078;-56
2022/03/20 00:30:42;;;;;;;9.77;1.83;;;7.60;95.00;;;;;;5086998;28;20199;-55
2022/03/20 00:33:09;;;;;;;11.20;1.88;;;7.60;95.00;;;;;;5086542;28;20182;-57
2022/03/20 00:35:36;;;;;;;8.75;2.05;;;7.60;95.10;;;;;;5086606;28;20083;-62
2022/03/20 00:38:04;;;;;;;8.88;1.80;;;7.50;95.10;;;;;;5086379;28;20484;-57
2022/03/20 00:40:31;;;;;;;8.82;1.17;;;7.50;95.10;;;;;;5070208;28;20568;-57
2022/03/20 00:42:58;;;;;;;9.50;1.60;;;7.50;95.20;;;;;;5089589;28;20094;-55
2022/03/20 00:45:26;;;;;;;9.90;1.40;;;7.50;95.30;;;;;;5072102;28;20044;-57
2022/03/20 00:47:53;;;;;;;19.25;2.40;;;7.50;95.30;;;;;;5089615;28;20048;-55
2022/03/20 00:50:20;;;;;;;11.40;1.65;;;7.50;95.40;;;;;;5090360;28;20084;-56
2022/03/20 00:52:47;;;;;;;13.35;2.28;;;7.40;95.40;;;;;;5089692;28;20431;-57
2022/03/20 00:55:14;;;;;;;5.70;1.70;;;7.40;95.60;;;;;;5089684;28;20207;-56
2022/03/20 00:57:41;;;;;;;8.38;1.90;;;7.40;95.60;;;;;;5071697;28;20131;-57
2022/03/20 01:00:08;;;;;;;11.90;2.83;;;7.40;95.60;;;;;;5088649;28;20071;-56
2022/03/20 01:02:39;;;;;;;8.27;1.83;;;7.40;95.70;;;;;;5088338;28;20101;-57
2022/03/20 01:05:06;;;;;;;6.63;1.92;;;7.30;95.80;;;;;;5089009;28;20044;-54
2022/03/20 01:07:33;;;;;;;13.50;1.70;;;7.30;95.80;;;;;;5090048;28;20568;-56
2022/03/20 01:10:01;;;;;;;14.45;2.40;;;7.20;96.00;;;;;;5089895;28;20685;-57
2022/03/20 01:12:28;;;;;;;14.50;2.08;;;7.30;95.90;;;;;;5089778;28;20133;-56
2022/03/20 01:14:55;;;;;;;17.30;1.90;;;7.30;96.00;;;;;;5089551;28;20109;-55
2022/03/20 01:17:23;;;;;;;11.45;2.03;;;7.20;96.00;;;;;;5089827;28;20076;-57
2022/03/20 01:19:51;;;;;;;9.77;2.75;;;7.20;96.10;;;;;;5089301;28;20079;-57
2022/03/20 01:22:17;;;;;;;11.88;2.20;;;7.10;96.20;;;;;;5089065;28;20213;-57
2022/03/20 01:24:45;;;;;;;8.90;1.80;;;7.20;96.30;;;;;;5088688;28;20055;-57
2022/03/20 01:27:13;;;;;;;11.85;2.40;;;7.10;96.30;;;;;;4733069;28;10000032;-57
2022/03/20 01:29:40;;;;;;;9.20;2.22;;;7.10;96.40;;;;;;5088721;28;20097;-55
2022/03/20 01:32:08;;;;;;;10.93;2.17;;;7.20;96.40;;;;;;5088970;28;20080;-56
2022/03/20 01:34:35;;;;;;;7.45;1.63;;;7.10;96.40;;;;;;5089287;28;20072;-56
2022/03/20 01:37:02;;;;;;;10.15;1.85;;;7.00;96.50;;;;;;5088811;28;20051;-56
2022/03/20 01:39:29;;;;;;;12.27;3.10;;;6.90;96.70;;;;;;5071126;28;20491;-57
2022/03/20 01:42:01;;;;;;;11.60;2.22;;;6.90;96.80;;;;;;5088547;28;20056;-52
2022/03/20 01:44:32;;;;;;;10.15;2.03;;;6.90;96.90;;;;;;5088507;28;20090;-55
2022/03/20 01:46:59;;;;;;;11.65;2.20;;;6.80;97.10;;;;;;5054413;28;20048;-55
2022/03/20 01:49:26;;;;;;;6.55;2.25;;;6.80;97.50;;;;;;5088312;28;20048;-56
2022/03/20 01:52:11;;;;;;;8.82;1.90;;;6.90;97.20;;;;;;5087748;28;20063;-55
2022/03/20 01:54:42;;;;;;;9.75;1.85;;;6.80;97.30;;;;;;5074187;28;20069;-55
2022/03/20 01:57:09;;;;;;;13.30;2.35;;;6.80;97.30;;;;;;5089094;28;20063;-56
2022/03/20 01:59:36;;;;;;;11.07;2.40;;;6.70;97.40;;;;;;5089506;28;20526;-56
2022/03/20 02:02:04;;;;;;;9.27;2.10;;;6.70;97.50;;;;;;5087628;28;20065;-56
2022/03/20 02:04:33;;;;;;;9.85;1.92;;;6.70;97.60;;;;;;5088832;28;20070;-54
2022/03/20 02:07:00;;;;;;;9.75;2.20;;;6.60;97.70;;;;;;5070169;28;20056;-55
2022/03/20 02:09:27;;;;;;;16.10;2.42;;;6.60;97.70;;;;;;5070897;28;20117;-56
2022/03/20 02:11:54;;;;;;;10.50;2.28;;;6.70;97.80;;;;;;5088181;28;20530;-56
2022/03/20 02:14:21;;;;;;;5.70;1.60;;;6.60;97.80;;;;;;5088831;28;20088;-55
2022/03/20 02:16:49;;;;;;;9.85;2.40;;;6.50;97.90;;;;;;5088700;28;20108;-56
2022/03/20 02:19:16;;;;;;;8.27;2.03;;;6.60;97.90;;;;;;5070164;28;20040;-57
2022/03/20 02:21:47;;;;;;;12.48;2.15;;;6.60;97.90;;;;;;5088043;28;20062;-56
2022/03/20 02:24:36;;;;;;;7.68;1.73;;;6.50;98.00;;;;;;5087799;28;20086;-54
2022/03/20 02:27:04;;;;;;;12.10;2.33;;;6.40;98.60;;;;;;5087923;28;20071;-56
2022/03/20 02:29:31;;;;;;;9.13;1.80;;;6.40;98.60;;;;;;5088805;28;20056;-56
2022/03/20 02:32:02;;;;;;;19.33;2.72;;;6.40;98.20;;;;;;5088154;28;20052;-56
2022/03/20 02:34:30;;;;;;;15.13;3.17;;;6.40;98.50;;;;;;5088143;28;20040;-56
2022/03/20 02:36:58;;;;;;;8.88;2.15;;;6.40;98.30;;;;;;5087661;28;20051;-55
2022/03/20 02:39:24;;;;;;;10.52;2.40;;;6.40;98.40;;;;;;5070695;28;20044;-56
2022/03/20 02:41:51;;;;;;;8.77;1.63;;;6.30;98.60;;;;;;5069257;28;20052;-54
2022/03/20 02:44:18;;;;;;;7.85;2.30;;;6.30;98.50;;;;;;5087286;28;20466;-54
2022/03/20 02:46:45;;;;;;;6.32;2.22;;;6.30;98.80;;;;;;5035349;28;20071;-57
2022/03/20 02:49:13;;;;;;;15.18;2.47;;;6.30;98.50;;;;;;5086611;28;20594;-56
2022/03/20 02:51:40;;;;;;;5.05;1.30;;;6.30;98.50;;;;;;5069078;28;20449;-57
2022/03/20 02:54:06;;;;;;;13.07;2.50;;;6.30;98.70;;;;;;5087207;28;20040;-57
2022/03/20 02:56:38;;;;;;;12.77;2.17;;;6.40;98.60;;;;;;5087852;28;20052;-55
2022/03/20 02:59:07;;;;;;;17.75;2.60;;;6.30;98.60;;;;;;5086979;28;20048;-57
2022/03/20 03:01:33;;;;;;;12.65;3.67;;;6.30;98.40;;;;;;5087537;28;20048;-57
2022/03/20 03:04:01;;;;;;;14.82;2.60;;;6.30;98.60;;;;;;5085854;28;20495;-57
2022/03/20 03:06:27;;;;;;;13.48;2.30;;;6.30;98.60;;;;;;5066849;28;20823;-56
2022/03/20 03:11:40;;;;;;;9.90;2.17;;;6.30;98.60;;;;;;5067546;28;20496;-55
2022/03/20 03:15:19;;;;;;;9.80;2.08;;;6.20;98.60;;;;;;5084494;28;20643;-56
2022/03/20 03:16:54;;;;;;;7.53;2.33;;;6.20;98.60;;;;;;5087184;28;20082;-56
2022/03/20 03:19:21;;;;;;;12.50;2.38;;;6.20;98.70;;;;;;5086619;28;20461;-57
2022/03/20 03:21:48;;;;;;;16.23;2.30;;;6.10;98.70;;;;;;5087310;28;20580;-54
2022/03/20 03:24:15;;;;;;;7.90;2.03;;;6.10;98.80;;;;;;5086412;28;20136;-57
2022/03/20 03:26:41;;;;;;;18.95;3.22;;;6.10;98.80;;;;;;5087964;28;20055;-57
2022/03/20 03:29:08;;;;;;;16.83;3.40;;;6.00;98.90;;;;;;5087048;28;20048;-56
2022/03/20 03:31:35;;;;;;;9.10;2.30;;;6.00;99.00;;;;;;5087865;28;20085;-57
2022/03/20 03:36:49;;;;;;;10.02;2.65;;;5.90;99.20;;;;;;5055749;28;20458;-57
2022/03/20 03:39:16;;;;;;;7.80;2.10;;;5.80;99.30;;;;;;5086797;28;20036;-54
2022/03/20 03:41:42;;;;;;;8.40;2.72;;;5.80;99.40;;;;;;5087095;28;20055;-57
2022/03/20 03:44:09;;;;;;;11.60;2.58;;;5.80;99.40;;;;;;5086673;28;20071;-57
2022/03/20 03:46:37;;;;;;;13.00;2.33;;;5.80;99.50;;;;;;5086804;28;20116;-56
2022/03/20 03:49:04;;;;;;;6.75;2.28;;;5.80;99.60;;;;;;5086241;28;20076;-56
2022/03/20 03:51:31;;;;;;;11.32;2.58;;;5.70;99.50;;;;;;5086472;28;20083;-55
2022/03/20 03:53:57;;;;;;;11.18;2.13;;;5.70;99.60;;;;;;5086207;28;20101;-55
2022/03/20 03:56:24;;;;;;;13.85;3.25;;;5.70;99.60;;;;;;5087036;28;20576;-56
2022/03/20 03:58:51;;;;;;;8.35;1.83;;;5.70;99.70;;;;;;5087425;28;20083;-54
2022/03/20 04:01:18;;;;;;;11.13;3.13;;;5.70;99.80;;;;;;5086996;28;20052;-55
2022/03/20 04:03:45;;;;;;;9.10;2.10;;;5.60;99.80;;;;;;5070712;28;20053;-59
2022/03/20 04:06:12;;;;;;;12.48;2.22;;;5.60;99.90;;;;;;5086286;28;20048;-53
2022/03/20 04:08:38;;;;;;;15.15;2.30;;;5.50;99.90;;;;;;5069326;28;20450;-55
2022/03/20 04:11:05;;;;;;;18.00;3.78;;;5.50;99.90;;;;;;5086736;28;20491;-55
2022/03/20 04:13:32;;;;;;;6.72;2.25;;;5.50;99.90;;;;;;5087430;28;20040;-56
2022/03/20 04:15:59;;;;;;;11.38;2.60;;;5.40;99.90;;;;;;5090568;28;20097;-57
2022/03/20 04:18:26;;;;;;;12.43;2.50;;;5.40;99.90;;;;;;5091190;28;20039;-57
2022/03/20 04:20:53;;;;;;;9.02;2.35;;;5.30;99.90;;;;;;5091052;28;20448;-56
2022/03/20 04:26:05;;;;;;;11.07;1.85;;;5.30;99.90;;;;;;5090901;28;20127;-55
2022/03/20 04:28:31;;;;;;;10.75;2.75;;;5.30;99.90;;;;;;5072946;28;20044;-56
2022/03/20 04:30:58;;;;;;;7.85;2.42;;;5.20;99.90;;;;;;5090450;28;20113;-53
2022/03/20 04:33:25;;;;;;;13.27;3.80;;;5.20;99.90;;;;;;5089583;28;20056;-55
2022/03/20 04:35:52;;;;;;;9.25;2.17;;;5.10;99.90;;;;;;5089923;28;20070;-55
2022/03/20 04:38:21;;;;;;;10.18;2.30;;;5.10;99.90;;;;;;5090867;28;20051;-55
2022/03/20 04:40:49;;;;;;;6.13;2.22;;;5.10;99.90;;;;;;5090732;28;20055;-57
2022/03/20 04:43:17;;;;;;;14.48;2.75;;;5.10;99.90;;;;;;5090658;28;20048;-54
2022/03/20 04:45:44;;;;;;;16.23;2.58;;;5.00;99.90;;;;;;5090196;28;20112;-53
2022/03/20 04:59:13;;;;;;;11.77;2.75;;;5.00;99.90;;;;;;5082001;28;20185;-54
2022/03/20 05:01:39;;;;;;;12.82;3.15;;;5.00;99.90;;;;;;5090777;28;20067;-57
2022/03/20 05:04:06;;;;;;;16.05;2.72;;;5.00;99.90;;;;;;5090490;28;20044;-51
2022/03/20 05:06:33;;;;;;;8.70;3.97;;;5.00;99.90;;;;;;5090150;28;20083;-52
2022/03/20 05:14:31;;;;;;;6.97;2.38;;;5.00;99.90;;;;;;5079781;28;20443;-58
2022/03/20 05:17:10;;;;;;;15.45;2.95;;;4.90;99.90;;;;;;5089846;28;20048;-54
2022/03/20 05:19:38;;;;;;;10.20;2.65;;;4.80;99.90;;;;;;5079466;28;20146;-56
2022/03/20 05:22:05;;;;;;;16.35;2.78;;;4.80;99.90;;;;;;5090073;28;20063;-54
2022/03/20 05:24:35;;;;;;;9.77;3.45;;;4.70;99.90;;;;;;5090196;28;20098;-56
2022/03/20 05:27:02;;;;;;;10.15;2.78;;;4.70;99.90;;;;;;5088950;28;20036;-55
2022/03/20 05:29:29;;;;;;;8.07;2.10;;;4.70;99.90;;;;;;5071514;28;20532;-56
2022/03/20 05:31:56;;;;;;;10.30;2.35;;;4.70;99.90;;;;;;5089747;28;20062;-55
2022/03/20 05:34:23;;;;;;;11.55;3.28;;;4.70;99.90;;;;;;5072130;28;20040;-55
2022/03/20 05:36:51;;;;;;;15.27;2.60;;;4.70;99.90;;;;;;5090049;28;20044;-54
2022/03/20 05:39:17;;;;;;;13.35;2.75;;;4.70;99.90;;;;;;5089650;28;20044;-54
2022/03/20 05:41:48;;;;;;;13.65;2.92;;;4.70;99.90;;;;;;5090128;28;20083;-53
2022/03/20 05:44:22;;;;;;;10.30;2.78;;;4.60;99.90;;;;;;5089434;28;20169;-55
2022/03/20 05:46:49;;;;;;;12.02;2.78;;;4.60;99.90;;;;;;5069368;28;20640;-59
2022/03/20 05:49:17;;;;;;;11.68;3.50;;;4.60;99.90;;;;;;5086955;28;20085;-56
2022/03/20 05:51:44;;;;;;;11.27;3.90;;;4.60;99.90;;;;;;5088133;28;20080;-54
2022/03/20 05:54:11;;;;;;;9.60;2.80;;;4.50;99.90;;;;;;5089107;28;20044;-57
2022/03/20 05:59:24;;;;;;;12.73;2.47;;;4.40;99.90;;;;;;5073859;28;20040;-58
2022/03/20 06:01:51;;;;;;;13.93;2.88;;;4.40;99.90;;;;;;5089439;28;20089;-57
2022/03/20 06:04:18;;;;;;;6.63;2.95;;;4.40;99.90;;;;;;5089107;28;20047;-56
2022/03/20 06:06:45;;;;;;;9.43;2.83;;;4.40;99.90;;;;;;5071035;28;20044;-56
2022/03/20 06:09:12;;;;;;;12.02;4.50;;;4.40;99.90;;;;;;5088986;28;20049;-55
2022/03/20 06:11:39;;;;;;;11.73;2.30;;;4.40;99.90;;;;;;5089655;28;20436;-56
2022/03/20 06:14:06;;;;;;;14.60;3.08;;;4.50;99.90;;;;;;5088684;28;20082;-55
2022/03/20 06:16:34;;;;;;;12.45;3.13;;;4.50;99.90;;;;;;5089136;28;20101;-56
2022/03/20 06:19:01;;;;;;;5.55;2.88;;;4.50;99.90;;;;;;5089299;28;20454;-54
2022/03/20 06:21:28;;;;;;;6.70;2.38;;;4.50;99.90;;;;;;5089500;28;20076;-57
2022/03/20 06:23:55;;;;;;;10.23;3.00;;;4.50;99.90;;;;;;5088490;28;20245;-55
2022/03/20 06:26:23;;;;;;;5.63;2.35;;;4.50;99.90;;;;;;5089037;28;20051;-56
2022/03/20 06:28:50;;;;;;;17.98;3.95;;;4.40;99.90;;;;;;5071197;28;20048;-57
2022/03/20 06:31:19;;;;;;;11.88;4.70;;;4.50;99.90;;;;;;5070484;28;20517;-54
2022/03/20 06:33:56;;;;;;;8.73;2.42;;;4.40;99.90;;;;;;5087912;28;20487;-56
2022/03/20 06:36:23;;;;;;;13.10;3.55;;;4.40;99.90;;;;;;5086833;28;20101;-57
2022/03/20 06:38:50;;;;;;;13.38;4.93;;;4.40;99.90;;;;;;5068327;28;20364;-57
2022/03/20 06:41:18;;;;;;;18.77;8.98;;;4.50;99.90;;;;;;5086591;28;20048;-57
2022/03/20 06:43:45;;;;;;;15.95;6.25;;;4.50;99.90;;;;;;5069232;28;20040;-57
2022/03/20 06:46:11;;;;;;;13.20;7.03;;;4.50;99.90;;;;;;5086441;28;20108;-57
2022/03/20 06:48:54;;;;;;;19.77;7.63;;;4.60;99.90;;;;;;5066990;28;20068;-57
2022/03/20 06:51:22;;;;;;;17.23;8.13;;;4.60;99.90;;;;;;5086125;28;20083;-54
2022/03/20 06:53:51;;;;;;;22.27;8.07;;;4.60;99.90;;;;;;5088832;28;20051;-55
2022/03/20 06:56:17;;;;;;;22.98;10.32;;;4.60;99.90;;;;;;5088233;28;20044;-57
2022/03/20 06:58:44;;;;;;;16.77;7.50;;;4.70;99.90;;;;;;5088512;28;20040;-56
2022/03/20 07:01:11;;;;;;;18.35;6.63;;;4.70;99.90;;;;;;5087993;28;20093;-56
2022/03/20 07:03:39;;;;;;;14.25;6.63;;;4.80;99.90;;;;;;5088406;28;20116;-56
2022/03/20 07:06:05;;;;;;;21.70;8.35;;;4.80;99.90;;;;;;5088088;28;20052;-56
2022/03/20 07:08:32;;;;;;;35.10;10.90;;;4.90;99.90;;;;;;5088129;28;20090;-57
2022/03/20 07:10:59;;;;;;;37.42;12.02;;;4.90;99.90;;;;;;5087734;28;20205;-57
2022/03/20 07:16:14;;;;;;;47.10;16.00;;;5.00;99.90;;;;;;5087591;28;20061;-57
2022/03/20 07:18:42;;;;;;;43.92;15.63;;;5.10;99.90;;;;;;5070280;28;20050;-56
2022/03/20 07:21:09;;;;;;;44.35;15.75;;;5.20;99.90;;;;;;5087658;28;20094;-56
2022/03/20 07:23:37;;;;;;;33.33;11.43;;;5.20;99.90;;;;;;5088482;28;20068;-57
2022/03/20 07:31:34;;;;;;;29.20;8.93;;;5.20;99.90;;;;;;5089805;28;20453;-56
2022/03/20 07:34:02;;;;;;;10.35;5.85;;;5.50;99.90;;;;;;5089125;28;20051;-54
2022/03/20 07:36:29;;;;;;;18.15;4.88;;;5.60;99.90;;;;;;5088240;28;20084;-57
2022/03/20 07:38:55;;;;;;;17.58;5.30;;;5.60;99.90;;;;;;5069932;28;20442;-58
2022/03/20 07:41:22;;;;;;;17.92;6.00;;;5.70;99.90;;;;;;5087602;28;20067;-55
2022/03/20 07:43:50;;;;;;;13.70;4.60;;;5.80;99.90;;;;;;5068788;28;20399;-56
2022/03/20 07:46:16;;;;;;;14.73;4.45;;;5.80;99.90;;;;;;5087989;28;20089;-56
2022/03/20 07:48:43;;;;;;;12.68;4.50;;;5.90;99.90;;;;;;5086985;28;20044;-54
2022/03/20 07:51:11;;;;;;;11.52;5.20;;;5.90;99.90;;;;;;5087984;28;20060;-55
2022/03/20 07:53:38;;;;;;;13.30;4.35;;;6.00;99.90;;;;;;5087297;28;20448;-55
2022/03/20 07:56:05;;;;;;;19.40;4.57;;;6.00;99.90;;;;;;5088324;28;20079;-56
2022/03/20 07:58:32;;;;;;;15.73;4.35;;;6.00;99.90;;;;;;5088311;28;20048;-55
2022/03/20 08:00:58;;;;;;;15.00;5.57;;;6.00;99.90;;;;;;5088242;28;20071;-57
2022/03/20 08:03:25;;;;;;;15.50;4.63;;;6.10;99.90;;;;;;5087434;28;20465;-57
2022/03/20 08:05:52;;;;;;;17.25;5.68;;;6.10;99.90;;;;;;5087189;28;20041;-57
2022/03/20 08:08:19;;;;;;;20.35;4.50;;;6.10;99.90;;;;;;5087138;28;20098;-57
2022/03/20 08:10:46;;;;;;;22.27;4.70;;;6.20;99.90;;;;;;5087614;28;20418;-54
2022/03/20 08:13:13;;;;;;;15.82;5.00;;;6.20;99.90;;;;;;5087198;28;20051;-56
2022/03/20 08:15:42;;;;;;;16.45;5.03;;;6.20;99.90;;;;;;5086777;28;20044;-57
2022/03/20 08:18:09;;;;;;;25.35;7.93;;;6.30;99.90;;;;;;5067990;28;20635;-57
2022/03/20 08:20:35;;;;;;;17.65;6.07;;;6.30;99.90;;;;;;5085810;28;20569;-56
2022/03/20 08:23:03;;;;;;;14.15;5.78;;;6.30;99.90;;;;;;5068318;28;20577;-56
2022/03/20 08:25:31;;;;;;;21.48;5.45;;;6.50;99.90;;;;;;5086246;28;20112;-57
2022/03/20 08:27:58;;;;;;;23.98;6.53;;;6.60;99.90;;;;;;5068353;28;20040;-57
2022/03/20 08:30:24;;;;;;;21.55;6.10;;;6.70;99.90;;;;;;5086013;28;20051;-57
2022/03/20 08:32:52;;;;;;;16.13;6.57;;;6.80;99.90;;;;;;5068343;28;20454;-55
2022/03/20 08:35:19;;;;;;;22.50;6.55;;;6.80;99.90;;;;;;5085760;28;20143;-57
2022/03/20 08:37:48;;;;;;;19.85;6.13;;;6.80;99.90;;;;;;5086572;28;20067;-56
2022/03/20 08:40:16;;;;;;;16.08;5.65;;;7.00;99.90;;;;;;5086134;28;20443;-57
2022/03/20 08:42:44;;;;;;;18.85;6.30;;;7.00;99.90;;;;;;5087029;28;20086;-56
2022/03/20 08:45:11;;;;;;;12.82;5.40;;;7.00;99.90;;;;;;5085966;28;20074;-56
2022/03/20 08:47:44;;;;;;;20.65;6.68;;;7.10;99.90;;;;;;5086061;28;20104;-55
2022/03/20 08:50:13;;;;;;;16.08;6.60;;;7.20;99.90;;;;;;5085692;28;20158;-56
2022/03/20 08:52:44;;;;;;;19.77;8.18;;;7.20;99.90;;;;;;5086269;28;20048;-58
2022/03/20 08:55:12;;;;;;;12.05;5.85;;;7.30;99.90;;;;;;5085728;28;20059;-56
2022/03/20 08:57:40;;;;;;;19.35;7.07;;;7.30;99.90;;;;;;5085843;28;20044;-54
2022/03/20 09:00:11;;;;;;;15.70;6.53;;;7.50;99.90;;;;;;5067723;28;20501;-56
2022/03/20 09:02:41;;;;;;;19.02;7.68;;;7.40;99.90;;;;;;5089734;28;20064;-58
2022/03/20 09:05:11;;;;;;;20.58;9.63;;;7.50;99.90;;;;;;5089333;28;20082;-57
2022/03/20 09:07:39;;;;;;;22.73;7.43;;;7.60;99.90;;;;;;5089380;28;20086;-57
2022/03/20 09:10:07;;;;;;;20.77;8.85;;;7.70;99.90;;;;;;5088540;28;20227;-57
2022/03/20 09:12:34;;;;;;;21.80;8.57;;;7.80;99.90;;;;;;5089360;28;20105;-57
2022/03/20 09:15:02;;;;;;;17.88;9.38;;;7.90;99.90;;;;;;5089294;28;20048;-57
2022/03/20 09:20:19;;;;;;;15.05;7.97;;;8.30;99.90;;;;;;5087344;28;20120;-57
2022/03/20 09:22:45;;;;;;;16.15;8.10;;;8.70;99.60;;;;;;5070971;28;20503;-57
2022/03/20 09:25:13;;;;;;;16.08;8.00;;;9.00;99.50;;;;;;5088953;28;20044;-56
2022/03/20 09:27:40;;;;;;;18.25;8.35;;;9.20;99.40;;;;;;5089192;28;20097;-57
2022/03/20 09:30:07;;;;;;;18.65;9.05;;;9.50;99.00;;;;;;5088711;28;20052;-57
2022/03/20 09:32:34;;;;;;;17.73;8.10;;;9.80;98.70;;;;;;5070708;28;20101;-57
2022/03/20 09:35:01;;;;;;;22.48;12.07;;;10.10;98.50;;;;;;5070841;28;20105;-54
2022/03/20 09:37:28;;;;;;;21.42;8.50;;;10.20;97.60;;;;;;5088823;28;20075;-57
2022/03/20 09:39:55;;;;;;;22.42;9.48;;;10.10;97.70;;;;;;4735324;28;9999795;-56
2022/03/20 09:42:22;;;;;;;24.23;9.40;;;10.20;97.20;;;;;;5084642;28;20047;-58
2022/03/20 09:44:50;;;;;;;17.63;10.80;;;10.40;97.10;;;;;;5085795;28;20395;-54
2022/03/20 09:47:19;;;;;;;21.15;10.52;;;10.50;97.10;;;;;;5085394;28;20097;-57
2022/03/20 09:49:46;;;;;;;18.90;9.27;;;10.30;97.30;;;;;;5085427;28;20044;-59
2022/03/20 09:52:13;;;;;;;18.65;10.35;;;10.20;97.40;;;;;;5084645;28;20121;-59
2022/03/20 09:54:40;;;;;;;17.42;9.43;;;10.00;96.70;;;;;;5085690;28;20378;-57
2022/03/20 09:57:08;;;;;;;26.08;10.18;;;9.90;97.00;;;;;;5085117;28;20086;-59
2022/03/20 09:59:37;;;;;;;17.10;9.95;;;9.80;96.90;;;;;;5085253;28;20534;-59
2022/03/20 10:02:11;;;;;;;27.23;13.07;;;9.80;97.30;;;;;;5084763;28;20529;-59
2022/03/20 10:04:53;;;;;;;;;;;9.70;96.20;;;;;;5084849;28;20144;-58
2022/03/20 10:07:24;;;;;;;25.55;12.50;;;9.50;95.30;;;;;;5084407;28;19928;-59
2022/03/20 10:10:15;;;;;;;18.83;10.98;;;9.60;97.00;;;;;;5085420;28;20048;-56
2022/03/20 10:12:44;;;;;;;18.40;10.68;;;9.50;94.90;;;;;;5084211;28;20052;-59
2022/03/20 10:15:34;;;;;;;20.23;11.30;;;9.50;97.00;;;;;;5084636;28;20048;-58
2022/03/20 10:18:23;;;;;;;24.77;10.75;;;9.50;95.10;;;;;;5084296;28;20131;-57
2022/03/20 10:21:00;;;;;;;17.58;10.00;;;9.50;94.40;;;;;;5085153;28;20048;-60
2022/03/20 10:23:41;;;;;;;23.92;13.10;;;9.60;96.10;;;;;;5067307;28;20059;-57
2022/03/20 10:26:13;;;;;;;16.40;9.40;;;9.50;94.70;;;;;;5064350;28;20139;-59
2022/03/20 10:28:49;;;;;;;22.45;10.55;;;9.50;96.30;;;;;;5067363;28;20052;-60
2022/03/20 10:31:20;;;;;;;22.38;11.82;;;9.60;96.30;;;;;;5064392;28;20060;-59
2022/03/20 10:34:01;;;;;;;22.92;12.15;;;9.70;96.10;;;;;;5064037;28;20465;-59
2022/03/20 10:36:28;;;;;;;25.13;12.60;;;9.70;91.90;;;;;;5063961;28;20045;-59
2022/03/20 10:38:55;;;;;;;24.38;11.73;;;9.70;94.80;;;;;;5081671;28;20083;-59
2022/03/20 10:41:28;;;;;;;17.45;10.95;;;9.80;94.60;;;;;;5084626;28;20465;-58
2022/03/20 10:44:01;;;;;;;21.75;10.02;;;10.00;94.70;;;;;;5066815;28;20365;-58
2022/03/20 10:46:31;;;;;;;18.00;10.25;;;10.10;94.70;;;;;;5084186;28;20044;-58
2022/03/20 10:49:03;;;;;;;21.58;12.30;;;10.30;93.90;;;;;;5083844;28;20495;-60
2022/03/20 10:51:41;;;;;;;20.15;10.30;;;10.10;94.90;;;;;;5065818;28;20047;-59
2022/03/20 10:54:10;;;;;;;21.30;10.70;;;10.10;95.30;;;;;;5065835;28;20090;-60
2022/03/20 10:56:59;;;;;;;25.58;11.80;;;10.10;95.20;;;;;;5083909;28;20405;-58
2022/03/20 10:59:27;;;;;;;19.65;11.25;;;9.90;95.00;;;;;;5083931;28;20486;-59
2022/03/20 11:01:54;;;;;;;20.90;11.00;;;9.90;95.40;;;;;;5083983;28;20047;-59
2022/03/20 11:04:23;;;;;;;23.30;10.73;;;10.00;95.20;;;;;;5083125;28;20134;-60
2022/03/20 11:06:57;;;;;;;22.35;11.20;;;10.00;95.10;;;;;;5084001;28;20547;-57
2022/03/20 11:09:24;;;;;;;19.98;11.63;;;9.90;94.60;;;;;;5082823;28;20106;-59
2022/03/20 11:11:56;;;;;;;18.77;11.05;;;9.90;93.40;;;;;;5083988;28;20564;-57
2022/03/20 11:14:24;;;;;;;18.70;11.65;;;9.90;94.10;;;;;;5065506;28;20044;-59
2022/03/20 11:17:01;;;;;;;21.52;11.15;;;10.00;93.00;;;;;;5083296;28;20036;-58
2022/03/20 11:19:30;;;;;;;21.70;10.68;;;10.10;93.80;;;;;;5083592;28;20048;-58
2022/03/20 11:22:09;;;;;;;19.48;11.40;;;10.30;92.80;;;;;;5083771;28;20127;-58
2022/03/20 11:24:37;;;;;;;21.30;11.23;;;10.40;84.70;;;;;;5083293;28;20043;-58
2022/03/20 11:27:04;;;;;;;22.45;12.20;;;10.50;91.00;;;;;;5065809;28;20044;-59
2022/03/20 11:29:47;;;;;;;21.63;13.00;;;10.60;90.40;;;;;;5083634;28;20048;-57
2022/03/20 11:32:14;;;;;;;20.55;12.32;;;10.70;89.10;;;;;;5074786;28;20048;-58
2022/03/20 11:34:43;;;;;;;28.35;14.57;;;10.70;90.20;;;;;;5083838;28;20055;-59
2022/03/20 11:37:11;;;;;;;31.90;16.95;;;10.60;92.00;;;;;;5064890;28;20157;-59
2022/03/20 11:39:39;;;;;;;19.25;11.50;;;10.60;92.30;;;;;;5082361;28;20063;-60
2022/03/20 11:42:23;;;;;;;18.95;12.80;;;10.60;91.30;;;;;;5083936;28;20101;-57
2022/03/20 11:45:16;;;;;;;25.30;15.43;;;10.60;90.00;;;;;;5083278;28;20089;-55
2022/03/20 11:47:45;;;;;;;29.50;16.63;;;10.50;89.00;;;;;;5073478;28;20055;-55
2022/03/20 11:50:17;;;;;;;32.15;18.45;;;10.40;92.00;;;;;;5082432;28;20098;-57
2022/03/20 11:52:58;;;;;;;29.42;19.48;;;10.30;91.90;;;;;;5083020;28;20197;-57
2022/03/20 11:55:25;;;;;;;27.85;19.25;;;10.20;91.60;;;;;;5082932;28;20043;-57
2022/03/20 11:57:53;;;;;;;30.25;18.63;;;10.20;93.00;;;;;;5083110;28;20131;-58
2022/03/20 12:00:26;;;;;;;28.17;16.38;;;10.10;93.40;;;;;;5064802;28;20126;-56
2022/03/20 12:03:30;;;;;;;22.13;14.80;;;10.30;92.60;;;;;;5082434;28;20347;-58
2022/03/20 12:06:05;;;;;;;21.63;12.95;;;10.40;92.50;;;;;;4977329;28;20410;-58
2022/03/20 12:08:44;;;;;;;22.40;13.70;;;10.20;91.10;;;;;;5067729;28;20094;-59
2022/03/20 12:11:26;;;;;;;19.85;13.18;;;10.30;91.80;;;;;;5064728;28;20763;-60
2022/03/20 12:13:53;;;;;;;26.17;14.05;;;10.20;90.70;;;;;;5082757;28;20048;-57
2022/03/20 12:16:42;;;;;;;24.23;13.40;;;10.10;92.40;;;;;;5064975;28;20051;-58
2022/03/20 12:19:13;;;;;;;24.05;13.65;;;10.20;91.20;;;;;;5081913;28;20063;-57
2022/03/20 12:21:55;;;;;;;25.38;14.60;;;10.30;92.20;;;;;;5080079;28;20181;-58
2022/03/20 12:24:42;;;;;;;23.65;12.93;;;10.40;91.40;;;;;;5080615;28;20082;-58
2022/03/20 12:27:23;;;;;;;22.20;12.93;;;10.40;91.30;;;;;;5081402;28;21373;-57
2022/03/20 12:29:50;;;;;;;22.88;14.00;;;10.50;91.10;;;;;;5081655;28;20051;-58
2022/03/20 12:32:22;;;;;;;25.83;13.57;;;10.40;92.60;;;;;;5082661;28;20072;-58
2022/03/20 12:35:02;;;;;;;20.40;13.10;;;10.50;91.80;;;;;;5083080;28;20071;-57
2022/03/20 12:37:37;;;;;;;20.40;13.32;;;10.50;90.90;;;;;;5085129;28;20059;-59
2022/03/20 12:40:14;;;;;;;26.90;13.15;;;10.60;91.10;;;;;;5068186;28;20051;-59
2022/03/20 12:43:09;;;;;;;21.90;11.90;;;10.60;90.10;;;;;;5070542;28;20075;-59
2022/03/20 12:45:41;;;;;;;24.50;15.70;;;10.60;86.40;;;;;;5085383;28;20040;-59
2022/03/20 12:48:13;;;;;;;20.88;13.15;;;10.60;90.90;;;;;;5067841;28;20281;-59
2022/03/20 12:50:43;;;;;;;27.10;14.48;;;10.60;90.10;;;;;;5084415;28;20044;-60
2022/03/20 12:53:21;;;;;;;21.88;13.02;;;10.70;91.60;;;;;;5066788;28;20525;-59
2022/03/20 12:55:54;;;;;;;22.80;13.38;;;10.60;89.90;;;;;;5086097;28;20051;-58
2022/03/20 12:58:21;;;;;;;28.67;14.60;;;10.50;90.20;;;;;;5087156;28;20098;-57
2022/03/20 13:00:48;;;;;;;21.98;13.70;;;10.50;91.40;;;;;;5086421;28;20320;-59
2022/03/20 13:03:18;;;;;;;23.83;13.52;;;10.60;90.70;;;;;;5086658;28;20079;-59
2022/03/20 13:05:49;;;;;;;24.98;13.45;;;10.70;90.40;;;;;;5069351;28;20162;-58
2022/03/20 13:08:21;;;;;;;20.98;12.65;;;10.80;90.60;;;;;;5087194;28;20584;-58
2022/03/20 13:10:48;;;;;;;22.33;13.55;;;11.00;87.90;;;;;;5069757;28;20573;-58
2022/03/20 13:13:23;;;;;;;21.27;12.85;;;11.30;90.40;;;;;;5087302;28;20052;-58
2022/03/20 13:15:50;;;;;;;25.25;13.65;;;11.30;89.10;;;;;;5086775;28;20309;-60
2022/03/20 13:18:20;;;;;;;19.02;12.52;;;11.40;89.40;;;;;;5086608;28;20051;-60
2022/03/20 13:20:48;;;;;;;19.85;13.32;;;11.50;87.30;;;;;;5053004;28;20135;-59
2022/03/20 13:23:16;;;;;;;22.92;13.77;;;11.60;87.50;;;;;;5087137;28;20089;-59
2022/03/20 13:25:56;;;;;;;24.08;13.85;;;11.60;87.10;;;;;;5086371;28;20052;-58
2022/03/20 13:28:30;;;;;;;17.73;12.98;;;11.60;82.10;;;;;;5086254;28;20056;-59
2022/03/20 13:30:59;;;;;;;23.40;13.43;;;11.60;88.50;;;;;;5075763;28;20075;-58
2022/03/20 13:33:32;;;;;;;21.00;13.15;;;11.70;84.90;;;;;;5086181;28;20135;-57